createdAt,value
2018-01-18T00:01:06.290Z,3.47
2018-01-18T00:11:07.902Z,3.70
2018-01-18T00:21:10.193Z,3.10
2018-01-18T00:31:11.766Z,3.10
2018-01-18T00:41:13.373Z,2.80
2018-01-18T00:51:14.901Z,2.70
2018-01-18T01:01:16.479Z,2.27
2018-01-18T01:11:18.918Z,2.90
2018-01-18T01:21:20.470Z,1.80
2018-01-18T01:31:21.975Z,2.00
2018-01-18T01:41:23.502Z,1.80
2018-01-18T01:51:24.980Z,2.03
2018-01-18T02:01:26.440Z,3.50
2018-01-18T02:11:28.663Z,2.60
2018-01-18T02:21:30.968Z,3.50
2018-01-18T02:31:32.521Z,3.00
2018-01-18T02:41:34.188Z,2.97
2018-01-18T02:51:36.374Z,3.97
2018-01-18T03:01:37.968Z,3.63
2018-01-18T03:11:39.486Z,3.83
2018-01-18T03:21:40.976Z,4.60
2018-01-18T03:31:42.471Z,3.80
2018-01-18T03:41:43.983Z,3.80
2018-01-18T03:51:45.456Z,3.43
2018-01-18T04:01:46.916Z,4.07
2018-01-18T04:11:48.438Z,3.90
2018-01-18T04:21:50.059Z,3.27
2018-01-18T04:31:52.366Z,3.40
2018-01-18T04:41:53.918Z,3.70
2018-01-18T04:51:56.101Z,3.47
2018-01-18T05:01:57.559Z,2.23
2018-01-18T05:11:59.113Z,2.60
2018-01-18T05:22:00.615Z,4.03
2018-01-18T05:32:02.430Z,2.00
2018-01-18T05:42:04.671Z,2.67
2018-01-18T05:52:06.203Z,2.57
2018-01-18T06:02:07.698Z,2.10
2018-01-18T06:12:09.194Z,1.67
2018-01-18T06:22:10.749Z,0.80
2018-01-18T06:32:13.168Z,0.50
2018-01-18T06:42:15.469Z,0.50
2018-01-18T06:52:17.219Z,0.50
2018-01-18T07:02:18.851Z,0.90
2018-01-18T07:12:20.431Z,0.50
2018-01-18T07:22:21.990Z,0.40
2018-01-18T07:32:24.410Z,0.60
2018-01-18T07:42:26.716Z,0.40
2018-01-18T07:52:29.799Z,0.67
2018-01-18T08:02:31.317Z,0.50
2018-01-18T08:12:32.828Z,0.50
2018-01-18T08:22:34.424Z,0.50
2018-01-18T08:32:36.065Z,0.60
2018-01-18T08:42:38.379Z,0.53
2018-01-18T08:52:40.752Z,0.60
2018-01-18T09:02:43.313Z,0.70
2018-01-18T09:12:45.689Z,0.60
2018-01-18T09:22:47.203Z,0.53
2018-01-18T09:32:48.718Z,0.60
2018-01-18T09:42:50.326Z,0.70
2018-01-18T09:52:52.621Z,0.80
2018-01-18T10:02:54.159Z,0.63
2018-01-18T10:12:56.452Z,0.70
2018-01-18T10:22:57.996Z,0.80
2018-01-18T10:32:59.736Z,0.80
2018-01-18T10:43:02.288Z,0.67
2018-01-18T10:53:03.854Z,0.50
2018-01-18T11:03:05.520Z,1.00
2018-01-18T11:13:08.146Z,1.03
2018-01-18T11:23:09.748Z,1.10
2018-01-18T11:33:11.278Z,1.30
2018-01-18T11:43:12.827Z,1.27
2018-01-18T11:53:15.225Z,1.87
2018-01-18T12:03:16.869Z,2.50
2018-01-18T12:13:18.495Z,3.00
2018-01-18T12:23:25.926Z,2.23
2018-01-18T12:33:27.493Z,1.90
2018-01-18T12:43:29.122Z,2.53
2018-01-18T12:53:30.586Z,2.10
2018-01-18T13:03:33.646Z,2.40
2018-01-18T13:13:35.632Z,1.67
2018-01-18T13:23:37.469Z,2.47
2018-01-18T13:33:40.253Z,1.60
2018-01-18T13:43:42.576Z,1.90
2018-01-18T13:53:44.905Z,2.30
2018-01-18T14:03:46.449Z,1.97
2018-01-18T14:13:48.052Z,1.77
2018-01-18T14:23:49.613Z,1.90
2018-01-18T14:33:51.185Z,1.60
2018-01-18T14:43:52.773Z,1.53
2018-01-18T14:53:54.549Z,1.00
2018-01-18T15:03:56.132Z,1.20
2018-01-18T15:13:57.692Z,1.00
2018-01-18T15:23:59.354Z,1.10
2018-01-18T15:34:00.976Z,1.40
2018-01-18T15:44:02.588Z,1.20
2018-01-18T15:54:04.330Z,1.20
2018-01-18T16:04:06.188Z,1.20
2018-01-18T16:14:07.817Z,1.30
2018-01-18T16:24:09.316Z,1.00
2018-01-18T16:34:11.658Z,1.10
2018-01-18T16:44:13.211Z,1.30
2018-01-18T16:54:14.751Z,1.70
2018-01-18T17:04:16.284Z,2.17
2018-01-18T17:14:17.890Z,1.10
2018-01-18T17:24:20.335Z,1.43
2018-01-18T17:34:21.896Z,1.37
2018-01-18T17:44:23.373Z,1.53
2018-01-18T17:54:24.857Z,1.70
2018-01-18T18:04:27.188Z,2.73
2018-01-18T18:14:28.726Z,2.50
2018-01-18T18:24:30.242Z,1.83
2018-01-18T18:34:32.507Z,1.70
2018-01-18T18:44:34.121Z,1.50
2018-01-18T18:54:35.755Z,1.70
2018-01-18T19:04:37.356Z,2.20
2018-01-18T19:14:38.950Z,2.47
2018-01-18T19:24:40.479Z,6.20
2018-01-18T19:34:41.990Z,5.30
2018-01-18T19:44:44.188Z,4.60
2018-01-18T19:54:45.803Z,5.13
2018-01-18T20:04:48.332Z,5.10
2018-01-18T20:14:50.654Z,7.20
2018-01-18T20:24:52.906Z,5.80
2018-01-18T20:34:54.761Z,10.90
2018-01-18T20:44:56.397Z,3.80
2018-01-18T20:54:58.006Z,5.37
2018-01-18T21:04:59.608Z,4.40
2018-01-18T21:15:01.320Z,3.97
2018-01-18T21:25:03.197Z,3.37
2018-01-18T21:35:05.600Z,4.33
2018-01-18T21:45:07.178Z,3.27
2018-01-18T21:55:09.013Z,3.53
2018-01-18T22:05:10.568Z,5.33
2018-01-18T22:15:12.106Z,5.17
2018-01-18T22:25:13.661Z,3.53
2018-01-18T22:35:15.292Z,5.10
2018-01-18T22:45:17.020Z,3.03
2018-01-18T22:55:19.345Z,4.17
2018-01-18T23:05:20.890Z,4.10
2018-01-18T23:15:22.443Z,4.10
2018-01-18T23:25:24.790Z,3.50
2018-01-18T23:35:26.392Z,2.93
2018-01-18T23:45:27.927Z,2.20
2018-01-18T23:55:29.436Z,1.67
